Time;durP1;ratioP1;P1;durP2;ratioP2;P2;SDS_P1;SDS_P2;PMS_P1;PMS_P2;Temp;Humidity;BMP_temperature;BMP_pressure;BME280_temperature;BME280_humidity;BME280_pressure;Samples;Min_cycle;Max_cycle;Signal;HPM_P1;HPM_P2
2023/05/03 00:02:16;;;;;;;5.55;3.53;;;;;;;;;;5043783;28;20036;-77
2023/05/03 00:04:45;;;;;;;6.05;3.70;;;;;;;;;;5013934;28;20030;-78
2023/05/03 00:07:10;;;;;;;9.75;4.18;;;;;;;;;;5040246;28;20033;-77
2023/05/03 00:09:35;;;;;;;5.75;3.25;;;;;;;;;;5012933;28;20029;-77
2023/05/03 00:12:01;;;;;;;11.40;3.60;;;;;;;;;;5045256;28;20136;-76
2023/05/03 00:14:27;;;;;;;6.60;3.45;;;;;;;;;;4995285;28;20079;-77
2023/05/03 00:16:54;;;;;;;6.82;3.47;;;;;;;;;;4999732;28;20098;-75
2023/05/03 00:19:20;;;;;;;5.70;3.10;;;;;;;;;;5008208;28;20042;-77
2023/05/03 00:21:45;;;;;;;6.53;3.35;;;;;;;;;;5023379;28;20051;-75
2023/05/03 00:24:10;;;;;;;7.72;3.28;;;;;;;;;;4989250;28;20048;-76
2023/05/03 00:26:38;;;;;;;7.40;3.78;;;;;;;;;;4995429;28;20180;-76
2023/05/03 00:29:04;;;;;;;8.35;3.65;;;;;;;;;;5043152;28;20171;-77
2023/05/03 00:31:29;;;;;;;10.07;3.95;;;;;;;;;;5015954;28;20045;-76
2023/05/03 00:33:54;;;;;;;6.93;3.50;;;;;;;;;;5013644;28;20668;-76
2023/05/03 00:36:20;;;;;;;11.05;3.90;;;;;;;;;;5042633;28;20049;-78
2023/05/03 00:38:45;;;;;;;8.30;3.65;;;;;;;;;;5014134;28;20127;-76
2023/05/03 00:41:11;;;;;;;7.07;3.30;;;;;;;;;;5014414;28;20030;-76
2023/05/03 00:43:37;;;;;;;9.30;3.83;;;;;;;;;;5007221;28;20137;-77
2023/05/03 00:46:05;;;;;;;7.43;3.45;;;;;;;;;;5033592;28;20041;-77
2023/05/03 00:48:32;;;;;;;5.82;3.40;;;;;;;;;;5044807;28;20037;-76
2023/05/03 00:50:59;;;;;;;5.32;2.97;;;;;;;;;;5013204;28;20045;-77
2023/05/03 00:53:27;;;;;;;10.95;3.60;;;;;;;;;;5012847;28;20086;-78
2023/05/03 00:55:54;;;;;;;11.25;3.67;;;;;;;;;;4998103;28;20613;-74
2023/05/03 00:58:20;;;;;;;6.90;3.63;;;;;;;;;;5006410;28;20095;-78
2023/05/03 01:00:46;;;;;;;8.35;3.50;;;;;;;;;;5041945;28;20120;-78
2023/05/03 01:03:11;;;;;;;7.43;3.53;;;;;;;;;;5012191;28;20041;-77
2023/05/03 01:05:52;;;;;;;8.45;4.07;;;;;;;;;;5010082;28;20127;-76
2023/05/03 01:08:42;;;;;;;6.35;3.45;;;;;;;;;;5010085;28;20462;-75
2023/05/03 01:11:13;;;;;;;6.22;3.63;;;;;;;;;;5006949;28;20130;-76
2023/05/03 01:13:57;;;;;;;8.48;3.53;;;;;;;;;;5010637;28;20137;-75
2023/05/03 01:16:38;;;;;;;7.47;3.72;;;;;;;;;;5010063;28;20056;-76
2023/05/03 01:19:06;;;;;;;6.72;3.47;;;;;;;;;;4987035;28;20054;-76
2023/05/03 01:21:32;;;;;;;5.10;3.38;;;;;;;;;;5004654;28;20069;-75
2023/05/03 01:24:01;;;;;;;6.22;4.00;;;;;;;;;;4987907;28;20046;-77
2023/05/03 01:26:26;;;;;;;7.65;4.15;;;;;;;;;;4988435;28;20040;-75
2023/05/03 01:28:52;;;;;;;8.35;3.65;;;;;;;;;;4988042;28;20409;-77
2023/05/03 01:31:23;;;;;;;8.95;3.33;;;;;;;;;;4991043;28;20521;-76
2023/05/03 01:33:56;;;;;;;6.55;3.58;;;;;;;;;;4992759;28;20120;-76
2023/05/03 01:36:25;;;;;;;7.85;3.88;;;;;;;;;;4996946;28;20056;-75
2023/05/03 01:38:51;;;;;;;6.28;3.80;;;;;;;;;;4992702;28;20041;-75
2023/05/03 01:41:17;;;;;;;11.68;3.95;;;;;;;;;;4993581;28;20675;-75
2023/05/03 01:43:43;;;;;;;8.13;3.72;;;;;;;;;;4991259;28;20048;-75
2023/05/03 01:46:08;;;;;;;7.43;3.90;;;;;;;;;;5010145;28;20033;-76
2023/05/03 01:48:34;;;;;;;11.10;4.45;;;;;;;;;;5008918;28;20067;-76
2023/05/03 01:50:59;;;;;;;7.88;4.18;;;;;;;;;;5011054;28;20133;-76
2023/05/03 01:53:24;;;;;;;9.95;4.60;;;;;;;;;;5003393;28;20113;-76
2023/05/03 01:55:49;;;;;;;9.68;4.32;;;;;;;;;;5013491;28;20532;-76
2023/05/03 01:58:15;;;;;;;9.25;4.32;;;;;;;;;;5045894;28;20483;-75
2023/05/03 02:00:40;;;;;;;11.15;4.90;;;;;;;;;;5012190;28;20048;-77
2023/05/03 02:03:05;;;;;;;11.13;4.90;;;;;;;;;;5030987;28;20044;-77
2023/05/03 02:05:31;;;;;;;11.10;4.93;;;;;;;;;;5014604;28;20095;-75
2023/05/03 02:07:58;;;;;;;10.02;4.97;;;;;;;;;;5039095;28;20101;-76
2023/05/03 02:10:24;;;;;;;10.40;4.75;;;;;;;;;;5019241;28;20037;-75
2023/05/03 02:12:49;;;;;;;9.68;5.45;;;;;;;;;;5015490;28;20329;-76
2023/05/03 02:15:14;;;;;;;9.63;4.60;;;;;;;;;;5015087;28;20047;-76
2023/05/03 02:17:41;;;;;;;11.15;5.43;;;;;;;;;;5046800;28;20033;-76
2023/05/03 02:20:10;;;;;;;9.00;4.93;;;;;;;;;;5014077;28;20038;-77
2023/05/03 02:22:35;;;;;;;11.85;5.85;;;;;;;;;;5046589;28;20041;-77
2023/05/03 02:25:01;;;;;;;10.23;5.15;;;;;;;;;;5014873;28;20552;-75
2023/05/03 02:27:26;;;;;;;10.50;4.93;;;;;;;;;;5043332;28;20034;-78
2023/05/03 02:29:51;;;;;;;8.32;4.70;;;;;;;;;;5047342;28;20446;-75
2023/05/03 02:32:17;;;;;;;9.45;5.07;;;;;;;;;;5015781;28;20033;-77
2023/05/03 02:34:46;;;;;;;7.90;4.72;;;;;;;;;;5037410;28;20033;-76
2023/05/03 02:37:11;;;;;;;10.95;4.85;;;;;;;;;;5016139;28;20045;-76
2023/05/03 02:39:36;;;;;;;12.05;5.07;;;;;;;;;;5017441;28;20037;-76
2023/05/03 02:42:02;;;;;;;7.57;4.68;;;;;;;;;;5023150;28;20052;-76
2023/05/03 02:44:27;;;;;;;10.25;5.30;;;;;;;;;;5014935;28;20082;-76
2023/05/03 02:46:53;;;;;;;10.35;5.60;;;;;;;;;;5015638;28;22226;-76
2023/05/03 02:49:18;;;;;;;11.30;5.13;;;;;;;;;;5013473;28;20045;-76
2023/05/03 02:51:44;;;;;;;11.30;5.50;;;;;;;;;;5014695;28;20107;-75
2023/05/03 02:54:10;;;;;;;8.88;5.15;;;;;;;;;;5014030;28;20438;-76
2023/05/03 02:56:35;;;;;;;9.93;5.25;;;;;;;;;;5014125;28;20052;-75
2023/05/03 02:59:00;;;;;;;8.57;5.28;;;;;;;;;;5014190;28;20060;-75
2023/05/03 03:01:28;;;;;;;8.98;5.22;;;;;;;;;;5042644;28;20044;-76
2023/05/03 03:03:54;;;;;;;9.15;4.95;;;;;;;;;;5014644;28;20025;-75
2023/05/03 03:06:19;;;;;;;11.60;5.30;;;;;;;;;;5012177;28;20075;-75
2023/05/03 03:08:44;;;;;;;9.38;4.88;;;;;;;;;;5013865;28;20151;-76
2023/05/03 03:11:10;;;;;;;11.00;4.72;;;;;;;;;;5019721;28;20061;-76
2023/05/03 03:13:38;;;;;;;9.38;5.03;;;;;;;;;;5010756;28;20052;-75
2023/05/03 03:16:04;;;;;;;8.88;4.75;;;;;;;;;;5010828;28;20119;-75
2023/05/03 03:18:33;;;;;;;7.53;4.40;;;;;;;;;;5012924;28;20092;-76
2023/05/03 03:20:59;;;;;;;8.15;4.70;;;;;;;;;;5012287;28;20049;-76
2023/05/03 03:23:25;;;;;;;9.20;4.38;;;;;;;;;;5012599;28;20047;-77
2023/05/03 03:25:50;;;;;;;8.15;4.97;;;;;;;;;;5015983;28;20037;-76
2023/05/03 03:28:16;;;;;;;8.50;4.28;;;;;;;;;;5014450;28;20090;-74
2023/05/03 03:30:43;;;;;;;9.93;4.20;;;;;;;;;;5029643;28;20046;-76
2023/05/03 03:33:09;;;;;;;11.35;4.90;;;;;;;;;;5012441;28;20048;-75
2023/05/03 03:35:35;;;;;;;6.82;4.53;;;;;;;;;;5042296;28;20402;-75
2023/05/03 03:38:00;;;;;;;14.10;5.80;;;;;;;;;;5013740;28;20080;-77
2023/05/03 03:40:25;;;;;;;11.13;6.63;;;;;;;;;;5012226;28;20057;-75
2023/05/03 03:42:53;;;;;;;11.00;6.82;;;;;;;;;;5041898;28;20037;-75
2023/05/03 03:45:20;;;;;;;11.50;6.70;;;;;;;;;;5042308;28;20584;-74
2023/05/03 03:47:46;;;;;;;11.18;5.40;;;;;;;;;;5013950;28;20126;-75
2023/05/03 03:50:14;;;;;;;9.77;5.25;;;;;;;;;;5013425;28;20074;-74
2023/05/03 03:52:41;;;;;;;9.95;5.07;;;;;;;;;;5010671;28;20104;-75
2023/05/03 03:55:07;;;;;;;8.05;4.85;;;;;;;;;;5013293;28;20041;-75
2023/05/03 03:57:34;;;;;;;7.13;4.55;;;;;;;;;;5041969;28;20060;-75
2023/05/03 03:59:59;;;;;;;8.13;4.72;;;;;;;;;;5013986;28;20120;-75
2023/05/03 04:02:28;;;;;;;9.45;4.85;;;;;;;;;;5011119;28;20044;-75
2023/05/03 04:04:53;;;;;;;9.80;5.05;;;;;;;;;;5010470;28;20049;-74
2023/05/03 04:07:18;;;;;;;9.07;5.10;;;;;;;;;;5043267;28;20033;-75
2023/05/03 04:09:44;;;;;;;12.52;5.10;;;;;;;;;;5009989;28;20068;-75
2023/05/03 04:12:10;;;;;;;7.32;4.43;;;;;;;;;;5009886;28;20044;-75
2023/05/03 04:14:35;;;;;;;8.93;4.68;;;;;;;;;;5010805;28;20219;-75
2023/05/03 04:17:00;;;;;;;7.95;4.38;;;;;;;;;;5041792;28;20046;-76
2023/05/03 04:19:26;;;;;;;11.13;5.00;;;;;;;;;;5006686;28;20033;-74
2023/05/03 04:21:53;;;;;;;9.85;4.88;;;;;;;;;;5008769;28;20075;-77
2023/05/03 04:24:19;;;;;;;9.40;4.93;;;;;;;;;;5012403;28;20526;-75
2023/05/03 04:26:44;;;;;;;8.88;4.40;;;;;;;;;;5014411;28;20079;-75
2023/05/03 04:29:13;;;;;;;12.20;5.00;;;;;;;;;;5045047;28;20751;-76
2023/05/03 04:31:38;;;;;;;13.38;4.32;;;;;;;;;;5001615;28;20037;-76
2023/05/03 04:34:04;;;;;;;9.02;4.15;;;;;;;;;;5015101;28;20039;-76
2023/05/03 04:36:30;;;;;;;11.40;4.20;;;;;;;;;;5014728;28;20571;-75
2023/05/03 04:38:55;;;;;;;8.85;4.00;;;;;;;;;;5012235;28;20047;-76
2023/05/03 04:41:23;;;;;;;5.10;3.72;;;;;;;;;;5040701;28;20051;-77
2023/05/03 04:43:49;;;;;;;10.35;3.95;;;;;;;;;;5009847;28;20064;-76
2023/05/03 04:46:16;;;;;;;15.27;4.05;;;;;;;;;;5013730;28;20049;-76
2023/05/03 04:48:46;;;;;;;7.18;3.70;;;;;;;;;;5027522;28;21417;-75
2023/05/03 04:51:11;;;;;;;6.88;3.47;;;;;;;;;;5011583;28;20453;-76
2023/05/03 04:53:37;;;;;;;8.38;3.65;;;;;;;;;;5011991;28;20052;-75
2023/05/03 04:56:02;;;;;;;8.90;3.60;;;;;;;;;;5012250;28;20045;-77
2023/05/03 04:58:27;;;;;;;7.30;4.00;;;;;;;;;;5012535;28;20681;-75
2023/05/03 05:00:53;;;;;;;8.32;3.90;;;;;;;;;;5041961;28;20053;-77
2023/05/03 05:03:18;;;;;;;9.57;3.40;;;;;;;;;;5009126;28;20037;-75
2023/05/03 05:05:43;;;;;;;7.78;3.65;;;;;;;;;;5041235;28;20037;-77
2023/05/03 05:08:08;;;;;;;5.82;3.25;;;;;;;;;;5013632;28;20033;-77
2023/05/03 05:10:39;;;;;;;7.35;3.30;;;;;;;;;;5044566;28;20033;-76
2023/05/03 05:13:04;;;;;;;10.15;3.20;;;;;;;;;;5013350;28;20047;-76
2023/05/03 05:15:30;;;;;;;7.95;3.85;;;;;;;;;;5039466;28;20041;-75
2023/05/03 05:17:55;;;;;;;6.75;3.28;;;;;;;;;;5049341;28;20640;-75
2023/05/03 05:20:20;;;;;;;7.20;3.15;;;;;;;;;;5049107;28;20072;-75
2023/05/03 05:22:46;;;;;;;6.78;3.60;;;;;;;;;;5017515;28;20030;-75
2023/05/03 05:25:11;;;;;;;7.20;3.17;;;;;;;;;;5028704;28;20106;-77
2023/05/03 05:27:36;;;;;;;5.10;2.88;;;;;;;;;;5021025;28;20029;-75
2023/05/03 05:30:03;;;;;;;7.82;3.13;;;;;;;;;;5033561;28;20040;-75
2023/05/03 05:32:28;;;;;;;6.35;3.05;;;;;;;;;;5029769;28;20048;-75
2023/05/03 05:34:56;;;;;;;7.68;3.70;;;;;;;;;;5014819;28;20033;-76
2023/05/03 05:37:21;;;;;;;6.90;3.00;;;;;;;;;;5062049;28;20057;-76
2023/05/03 05:39:47;;;;;;;7.32;3.92;;;;;;;;;;5034902;28;20108;-76
2023/05/03 05:42:12;;;;;;;5.18;3.53;;;;;;;;;;5029284;28;20531;-76
2023/05/03 05:44:38;;;;;;;10.30;4.38;;;;;;;;;;5032721;28;20045;-76
2023/05/03 05:47:03;;;;;;;5.68;3.50;;;;;;;;;;5038966;28;20045;-75
2023/05/03 05:49:29;;;;;;;8.02;3.45;;;;;;;;;;5034138;28;20048;-79
2023/05/03 05:51:57;;;;;;;7.30;3.40;;;;;;;;;;5037349;28;20094;-75
2023/05/03 05:54:22;;;;;;;6.60;3.30;;;;;;;;;;5036385;28;20029;-76
2023/05/03 05:56:47;;;;;;;7.40;3.60;;;;;;;;;;5025235;28;20047;-77
2023/05/03 05:59:17;;;;;;;5.18;2.60;;;;;;;;;;5032102;28;20575;-78
2023/05/03 06:01:45;;;;;;;6.13;2.85;;;;;;;;;;5028741;28;20041;-76
2023/05/03 06:04:11;;;;;;;8.05;3.17;;;;;;;;;;5027778;28;20037;-76
2023/05/03 06:06:36;;;;;;;4.88;3.00;;;;;;;;;;5030228;28;20040;-78
2023/05/03 06:09:01;;;;;;;6.63;3.30;;;;;;;;;;5022693;28;20041;-76
2023/05/03 06:11:27;;;;;;;5.55;2.95;;;;;;;;;;5061387;28;20076;-77
2023/05/03 06:13:52;;;;;;;5.97;3.00;;;;;;;;;;5019441;28;20099;-78
2023/05/03 06:16:17;;;;;;;4.97;2.80;;;;;;;;;;5058174;28;20091;-75
2023/05/03 06:18:42;;;;;;;8.10;2.80;;;;;;;;;;5024823;28;20042;-77
2023/05/03 06:21:09;;;;;;;8.27;2.88;;;;;;;;;;5052975;28;20037;-77
2023/05/03 06:23:36;;;;;;;7.47;2.60;;;;;;;;;;5026262;28;20064;-77
2023/05/03 06:26:01;;;;;;;6.05;2.90;;;;;;;;;;5024130;28;20040;-76
2023/05/03 06:28:27;;;;;;;5.93;3.00;;;;;;;;;;5023063;28;20437;-77
2023/05/03 06:30:52;;;;;;;5.18;2.40;;;;;;;;;;5024226;28;20041;-76
2023/05/03 06:33:17;;;;;;;9.27;2.53;;;;;;;;;;5019344;28;20076;-76
2023/05/03 06:35:42;;;;;;;6.13;2.30;;;;;;;;;;5051775;28;20045;-76
2023/05/03 06:38:10;;;;;;;5.13;1.75;;;;;;;;;;5014768;28;20065;-77
2023/05/03 06:40:36;;;;;;;5.40;1.60;;;;;;;;;;5013456;28;20046;-78
2023/05/03 06:43:01;;;;;;;5.88;2.03;;;;;;;;;;5014726;28;20041;-76
2023/05/03 06:45:26;;;;;;;2.97;1.70;;;;;;;;;;5013696;28;20091;-75
2023/05/03 06:47:51;;;;;;;5.15;2.03;;;;;;;;;;5008470;28;20528;-76
2023/05/03 06:50:21;;;;;;;6.68;2.10;;;;;;;;;;5009672;28;20040;-75
2023/05/03 06:52:49;;;;;;;3.05;1.77;;;;;;;;;;5015512;28;20041;-76
2023/05/03 06:55:14;;;;;;;6.60;1.60;;;;;;;;;;5022821;28;20975;-76
2023/05/03 06:57:41;;;;;;;8.93;1.67;;;;;;;;;;5010401;28;20061;-76
2023/05/03 07:00:07;;;;;;;6.32;1.73;;;;;;;;;;5024750;28;20037;-74
2023/05/03 07:02:32;;;;;;;7.72;1.60;;;;;;;;;;5010511;28;20453;-75
2023/05/03 07:04:57;;;;;;;6.53;1.90;;;;;;;;;;5011680;28;20037;-75
2023/05/03 07:07:23;;;;;;;5.30;1.42;;;;;;;;;;5013801;28;20037;-75
2023/05/03 07:09:50;;;;;;;4.38;1.73;;;;;;;;;;5010739;28;20566;-74
2023/05/03 07:12:15;;;;;;;3.50;1.70;;;;;;;;;;5009185;28;20033;-74
2023/05/03 07:14:41;;;;;;;6.43;2.00;;;;;;;;;;5013159;28;20041;-74
2023/05/03 07:17:06;;;;;;;7.65;2.10;;;;;;;;;;5041991;28;20575;-76
2023/05/03 07:19:32;;;;;;;8.25;1.90;;;;;;;;;;5007765;28;20142;-75
2023/05/03 07:21:57;;;;;;;6.22;2.08;;;;;;;;;;5042158;28;20712;-74
2023/05/03 07:24:25;;;;;;;6.70;2.42;;;;;;;;;;5003493;28;20041;-75
2023/05/03 07:26:53;;;;;;;6.15;1.83;;;;;;;;;;5008448;28;20038;-77
2023/05/03 07:29:18;;;;;;;4.15;1.50;;;;;;;;;;5011295;28;21950;-77
2023/05/03 07:31:46;;;;;;;7.57;1.77;;;;;;;;;;5006953;28;20263;-75
2023/05/03 07:34:11;;;;;;;46.28;3.00;;;;;;;;;;5008592;28;20041;-67
2023/05/03 07:36:39;;;;;;;2.25;0.98;;;;;;;;;;5040734;28;20051;-69
2023/05/03 07:39:04;;;;;;;2.85;1.10;;;;;;;;;;5042431;28;20041;-69
2023/05/03 07:41:30;;;;;;;7.57;1.50;;;;;;;;;;5009230;28;20041;-68
2023/05/03 07:43:55;;;;;;;3.55;1.00;;;;;;;;;;5008898;28;20167;-68
2023/05/03 07:46:21;;;;;;;3.72;1.50;;;;;;;;;;5042949;28;20068;-66
2023/05/03 07:48:46;;;;;;;2.72;0.82;;;;;;;;;;5010684;28;20254;-67
2023/05/03 07:51:11;;;;;;;5.90;1.63;;;;;;;;;;5011639;28;20113;-66
2023/05/03 07:53:39;;;;;;;4.78;1.52;;;;;;;;;;5009883;28;20038;-66
2023/05/03 07:56:04;;;;;;;4.53;1.50;;;;;;;;;;5007225;28;20486;-67
2023/05/03 07:58:30;;;;;;;4.00;1.20;;;;;;;;;;5008893;28;20072;-69
2023/05/03 08:00:55;;;;;;;3.33;1.10;;;;;;;;;;5005290;28;20125;-67
2023/05/03 08:03:20;;;;;;;4.30;1.20;;;;;;;;;;5008542;28;20112;-67
2023/05/03 08:05:46;;;;;;;4.97;2.20;;;;;;;;;;5016308;28;20453;-69
2023/05/03 08:08:13;;;;;;;5.00;1.17;;;;;;;;;;5009549;28;20055;-68
2023/05/03 08:10:38;;;;;;;4.70;1.20;;;;;;;;;;4998810;28;20038;-69
2023/05/03 08:13:06;;;;;;;6.47;1.20;;;;;;;;;;5001427;28;20606;-68
2023/05/03 08:15:33;;;;;;;4.38;1.10;;;;;;;;;;4993974;28;20033;-69
2023/05/03 08:18:00;;;;;;;3.88;1.10;;;;;;;;;;5026654;28;20040;-69
2023/05/03 08:20:31;;;;;;;5.07;1.20;;;;;;;;;;5006523;28;20410;-68
2023/05/03 08:22:56;;;;;;;5.10;0.90;;;;;;;;;;5002805;28;20053;-68
2023/05/03 08:25:24;;;;;;;5.47;1.05;;;;;;;;;;5005181;28;20828;-66
2023/05/03 08:27:54;;;;;;;4.45;1.20;;;;;;;;;;5036912;28;20088;-68
2023/05/03 08:30:20;;;;;;;4.13;0.88;;;;;;;;;;5004525;28;20029;-66
2023/05/03 08:32:46;;;;;;;9.25;1.10;;;;;;;;;;5004951;28;20041;-66
2023/05/03 08:35:13;;;;;;;3.60;1.10;;;;;;;;;;5007820;28;20164;-67
2023/05/03 08:37:39;;;;;;;4.13;0.90;;;;;;;;;;5039379;28;20111;-66
2023/05/03 08:40:05;;;;;;;5.88;1.30;;;;;;;;;;5004705;28;20486;-69
2023/05/03 08:42:32;;;;;;;5.38;1.20;;;;;;;;;;5006055;28;20037;-67
2023/05/03 08:44:58;;;;;;;5.80;1.00;;;;;;;;;;4997601;28;20045;-68
2023/05/03 08:47:23;;;;;;;3.35;1.10;;;;;;;;;;5006627;28;20448;-67
2023/05/03 08:49:50;;;;;;;4.35;1.15;;;;;;;;;;5036039;28;20633;-67
2023/05/03 08:52:17;;;;;;;3.20;1.05;;;;;;;;;;5010229;28;20045;-66
2023/05/03 08:54:42;;;;;;;6.47;1.00;;;;;;;;;;5015008;28;20584;-65
2023/05/03 08:57:19;;;;;;;6.20;0.90;;;;;;;;;;5017786;28;20041;-68
2023/05/03 08:59:46;;;;;;;5.05;1.23;;;;;;;;;;5010638;28;20998;-68
2023/05/03 09:02:12;;;;;;;4.43;1.23;;;;;;;;;;5016770;28;20037;-67
2023/05/03 09:04:37;;;;;;;2.88;0.95;;;;;;;;;;5045062;28;20040;-67
2023/05/03 09:07:07;;;;;;;3.17;1.10;;;;;;;;;;5045577;28;20034;-67
2023/05/03 09:09:32;;;;;;;4.00;1.02;;;;;;;;;;5043764;28;22623;-67
2023/05/03 09:11:57;;;;;;;3.08;1.00;;;;;;;;;;5042097;28;20030;-67
2023/05/03 09:14:23;;;;;;;4.80;1.20;;;;;;;;;;5042510;28;20065;-68
2023/05/03 09:16:48;;;;;;;3.95;1.40;;;;;;;;;;5042427;28;20045;-66
2023/05/03 09:19:14;;;;;;;4.93;1.60;;;;;;;;;;5015912;28;20047;-68
2023/05/03 09:21:40;;;;;;;4.20;1.30;;;;;;;;;;5011827;28;20037;-68
2023/05/03 09:24:24;;;;;;;3.20;1.50;;;;;;;;;;5007519;28;20091;-67
2023/05/03 09:26:50;;;;;;;4.03;1.58;;;;;;;;;;5004329;28;20057;-69
2023/05/03 09:29:26;;;;;;;6.50;1.85;;;;;;;;;;5002745;28;20053;-67
2023/05/03 09:31:59;;;;;;;4.25;1.38;;;;;;;;;;5005194;28;20044;-68
2023/05/03 09:34:24;;;;;;;6.18;1.35;;;;;;;;;;5003176;28;20040;-69
2023/05/03 09:36:52;;;;;;;3.75;1.27;;;;;;;;;;5004619;28;20046;-69
2023/05/03 09:39:18;;;;;;;10.52;1.65;;;;;;;;;;5001942;28;20040;-70
2023/05/03 09:48:22;;;;;;;4.53;1.33;;;;;;;;;;4993126;28;20038;-69
2023/05/03 09:50:47;;;;;;;4.82;1.58;;;;;;;;;;4996591;28;20041;-68
2023/05/03 09:53:14;;;;;;;7.25;1.48;;;;;;;;;;5000981;28;20059;-68
2023/05/03 09:55:40;;;;;;;4.05;1.45;;;;;;;;;;4990600;28;20056;-71
2023/05/03 09:58:05;;;;;;;6.57;1.50;;;;;;;;;;4992040;28;20041;-70
2023/05/03 10:00:42;;;;;;;4.82;1.50;;;;;;;;;;4992093;28;20025;-71
2023/05/03 10:03:09;;;;;;;3.53;1.30;;;;;;;;;;4990147;28;20176;-68
2023/05/03 10:05:50;;;;;;;4.35;1.60;;;;;;;;;;4989687;28;20688;-65
2023/05/03 10:08:23;;;;;;;5.50;1.73;;;;;;;;;;4971735;28;20048;-66
2023/05/03 10:10:50;;;;;;;4.43;1.52;;;;;;;;;;5001336;28;21011;-67
2023/05/03 10:13:21;;;;;;;4.70;1.65;;;;;;;;;;4971614;28;20035;-65
2023/05/03 10:15:51;;;;;;;3.65;1.60;;;;;;;;;;4971935;28;20056;-66
2023/05/03 10:18:19;;;;;;;4.53;1.50;;;;;;;;;;4975577;28;20045;-65
2023/05/03 10:20:54;;;;;;;4.57;1.48;;;;;;;;;;4972264;28;20048;-65
2023/05/03 10:23:19;;;;;;;5.78;1.67;;;;;;;;;;5002651;28;20064;-64
2023/05/03 10:26:03;;;;;;;5.40;1.50;;;;;;;;;;5000612;28;20058;-65
2023/05/03 10:28:28;;;;;;;5.90;1.67;;;;;;;;;;4968872;28;20041;-64
2023/05/03 10:30:54;;;;;;;3.28;1.60;;;;;;;;;;4969167;28;20062;-64
2023/05/03 10:33:20;;;;;;;2.70;1.42;;;;;;;;;;4972404;28;20678;-65
2023/05/03 10:35:52;;;;;;;3.92;1.70;;;;;;;;;;4970094;28;20073;-65
2023/05/03 10:38:22;;;;;;;6.25;2.10;;;;;;;;;;4970750;28;20033;-65
2023/05/03 10:40:47;;;;;;;4.03;1.83;;;;;;;;;;4969494;28;20030;-64
2023/05/03 10:43:33;;;;;;;4.50;1.80;;;;;;;;;;4969143;28;20112;-63
2023/05/03 10:46:08;;;;;;;5.50;1.95;;;;;;;;;;4972126;28;20045;-63
2023/05/03 10:48:34;;;;;;;5.10;1.95;;;;;;;;;;4999450;28;20145;-63
2023/05/03 10:51:18;;;;;;;4.20;2.10;;;;;;;;;;4969504;28;20486;-63
2023/05/03 10:53:43;;;;;;;5.35;2.28;;;;;;;;;;5000675;28;20514;-63
2023/05/03 10:56:16;;;;;;;6.35;2.60;;;;;;;;;;4968574;28;20065;-63
2023/05/03 10:58:45;;;;;;;6.35;2.50;;;;;;;;;;4969963;28;20129;-64
2023/05/03 11:01:11;;;;;;;6.05;2.13;;;;;;;;;;4973225;28;20064;-66
2023/05/03 11:03:39;;;;;;;5.70;2.00;;;;;;;;;;4971214;28;20583;-63
2023/05/03 11:06:05;;;;;;;4.60;2.40;;;;;;;;;;4970091;28;20588;-64
2023/05/03 11:08:36;;;;;;;5.25;1.90;;;;;;;;;;4969553;28;20491;-64
2023/05/03 11:11:02;;;;;;;4.20;1.98;;;;;;;;;;4970527;28;20057;-65
2023/05/03 11:13:28;;;;;;;5.47;2.47;;;;;;;;;;4975158;28;20038;-66
2023/05/03 11:15:53;;;;;;;6.03;2.15;;;;;;;;;;4977223;28;20108;-66
2023/05/03 11:18:21;;;;;;;5.38;2.17;;;;;;;;;;4976592;28;20064;-66
2023/05/03 11:20:46;;;;;;;3.90;1.80;;;;;;;;;;4995063;28;20052;-64
2023/05/03 11:23:12;;;;;;;4.22;2.20;;;;;;;;;;5028578;28;20199;-66
2023/05/03 11:25:37;;;;;;;4.40;2.20;;;;;;;;;;4994648;28;20505;-64
2023/05/03 11:28:03;;;;;;;2.65;1.80;;;;;;;;;;4993529;28;20172;-66
2023/05/03 11:30:29;;;;;;;4.25;2.40;;;;;;;;;;4990075;28;20033;-63
2023/05/03 11:32:57;;;;;;;5.38;2.28;;;;;;;;;;4989873;28;20209;-64
2023/05/03 11:35:25;;;;;;;5.28;2.50;;;;;;;;;;4989635;28;20041;-64
2023/05/03 11:37:51;;;;;;;5.95;2.50;;;;;;;;;;4989361;28;20060;-65
2023/05/03 11:40:17;;;;;;;5.05;2.30;;;;;;;;;;4992703;28;20033;-64
2023/05/03 11:42:52;;;;;;;3.72;2.00;;;;;;;;;;4994918;28;20493;-64
2023/05/03 11:45:18;;;;;;;5.93;2.05;;;;;;;;;;4987761;28;20539;-64
2023/05/03 11:47:43;;;;;;;6.35;2.70;;;;;;;;;;4988365;28;20152;-64
2023/05/03 11:50:09;;;;;;;4.18;2.30;;;;;;;;;;4985945;28;20122;-63
2023/05/03 11:52:36;;;;;;;5.35;2.40;;;;;;;;;;5020038;28;20885;-63
2023/05/03 11:55:01;;;;;;;7.60;2.33;;;;;;;;;;4988028;28;20040;-63
2023/05/03 11:57:26;;;;;;;3.33;2.05;;;;;;;;;;4991839;28;20483;-64
2023/05/03 11:59:52;;;;;;;3.50;1.90;;;;;;;;;;5026765;28;20044;-64
2023/05/03 12:02:17;;;;;;;5.05;2.35;;;;;;;;;;4991991;28;20041;-63
2023/05/03 12:04:43;;;;;;;4.75;2.50;;;;;;;;;;4998537;28;20060;-65
2023/05/03 12:07:12;;;;;;;5.97;2.50;;;;;;;;;;5002069;28;20059;-67
2023/05/03 12:09:38;;;;;;;7.00;2.28;;;;;;;;;;5027086;28;20252;-64
2023/05/03 12:12:05;;;;;;;6.05;2.50;;;;;;;;;;5011751;28;20164;-63
2023/05/03 12:14:50;;;;;;;3.40;2.25;;;;;;;;;;4994098;28;20127;-65
2023/05/03 12:17:33;;;;;;;6.32;2.60;;;;;;;;;;4993272;28;20045;-64
2023/05/03 12:20:18;;;;;;;5.35;2.40;;;;;;;;;;4986509;28;20297;-64
2023/05/03 12:22:44;;;;;;;7.00;2.83;;;;;;;;;;4971656;28;20536;-65
2023/05/03 12:25:09;;;;;;;6.95;2.45;;;;;;;;;;4984977;28;20034;-63
2023/05/03 12:27:34;;;;;;;5.20;2.50;;;;;;;;;;4970778;28;20036;-66
2023/05/03 12:30:00;;;;;;;7.38;2.50;;;;;;;;;;4968844;28;20038;-63
2023/05/03 12:32:25;;;;;;;5.25;2.35;;;;;;;;;;4968776;28;20591;-64
2023/05/03 12:34:54;;;;;;;4.13;2.45;;;;;;;;;;4967932;28;20057;-65
2023/05/03 12:37:20;;;;;;;6.38;2.60;;;;;;;;;;4969141;28;20053;-63
2023/05/03 12:39:47;;;;;;;3.92;2.40;;;;;;;;;;4968293;28;20546;-62
2023/05/03 12:42:13;;;;;;;5.95;2.30;;;;;;;;;;4976158;28;20034;-63
2023/05/03 12:44:38;;;;;;;5.75;2.33;;;;;;;;;;4999616;28;20581;-65
2023/05/03 12:47:03;;;;;;;5.38;2.30;;;;;;;;;;4966636;28;20529;-64
2023/05/03 12:49:29;;;;;;;4.93;2.50;;;;;;;;;;4999254;28;20034;-64
2023/05/03 12:51:59;;;;;;;5.35;3.00;;;;;;;;;;4998695;28;20058;-65
2023/05/03 12:54:24;;;;;;;6.85;2.65;;;;;;;;;;4968295;28;20758;-65
2023/05/03 12:56:52;;;;;;;5.03;2.70;;;;;;;;;;4971831;28;20185;-63
2023/05/03 12:59:17;;;;;;;6.65;2.53;;;;;;;;;;4987411;28;20097;-64
2023/05/03 13:01:43;;;;;;;5.20;2.97;;;;;;;;;;4984145;28;20038;-64
2023/05/03 13:04:11;;;;;;;4.78;2.80;;;;;;;;;;4985548;28;20037;-66
2023/05/03 13:06:37;;;;;;;4.97;3.00;;;;;;;;;;5001568;28;22600;-64
2023/05/03 13:09:03;;;;;;;5.97;3.38;;;;;;;;;;5000445;28;20029;-63
2023/05/03 13:11:28;;;;;;;6.72;2.67;;;;;;;;;;4987507;28;20123;-65
2023/05/03 13:13:56;;;;;;;6.70;2.70;;;;;;;;;;5018632;28;20034;-64
2023/05/03 13:16:23;;;;;;;8.07;3.05;;;;;;;;;;4985438;28;20263;-64
2023/05/03 13:18:53;;;;;;;5.95;3.60;;;;;;;;;;4987170;28;20103;-63
2023/05/03 13:21:21;;;;;;;6.53;2.83;;;;;;;;;;4985820;28;20639;-65
2023/05/03 13:23:48;;;;;;;4.57;2.75;;;;;;;;;;4986356;28;20034;-64
2023/05/03 13:26:15;;;;;;;4.72;2.60;;;;;;;;;;5016069;28;20452;-64
2023/05/03 13:28:43;;;;;;;4.45;2.75;;;;;;;;;;5018144;28;20044;-65
2023/05/03 13:31:12;;;;;;;4.75;2.90;;;;;;;;;;4987224;28;20526;-64
2023/05/03 13:33:53;;;;;;;4.32;2.67;;;;;;;;;;4984771;28;20040;-64
2023/05/03 13:36:18;;;;;;;3.67;2.58;;;;;;;;;;4983436;28;20809;-65
2023/05/03 13:38:43;;;;;;;6.20;2.67;;;;;;;;;;4986631;28;20180;-66
2023/05/03 13:41:11;;;;;;;5.88;2.70;;;;;;;;;;4984020;28;20044;-64
2023/05/03 13:43:36;;;;;;;6.47;2.70;;;;;;;;;;4991540;28;20041;-65
2023/05/03 13:46:02;;;;;;;4.32;2.50;;;;;;;;;;4984369;28;20633;-65
2023/05/03 13:48:27;;;;;;;5.90;2.72;;;;;;;;;;5014754;28;20045;-64
2023/05/03 13:50:52;;;;;;;4.13;2.75;;;;;;;;;;4983716;28;20128;-64
2023/05/03 13:53:18;;;;;;;4.47;2.45;;;;;;;;;;4989152;28;20121;-63
2023/05/03 13:55:45;;;;;;;4.97;2.60;;;;;;;;;;4985168;28;20124;-65
2023/05/03 13:58:11;;;;;;;7.78;3.05;;;;;;;;;;5017373;28;20372;-65
2023/05/03 14:00:36;;;;;;;6.72;2.97;;;;;;;;;;5016453;28;20029;-65
2023/05/03 14:03:02;;;;;;;6.13;2.90;;;;;;;;;;4986418;28;20608;-64
2023/05/03 14:05:28;;;;;;;6.70;3.00;;;;;;;;;;4984090;28;20026;-66
2023/05/03 14:07:53;;;;;;;6.10;3.10;;;;;;;;;;4985377;28;20038;-66
2023/05/03 14:10:18;;;;;;;5.60;3.00;;;;;;;;;;4985645;28;20838;-65
2023/05/03 14:12:43;;;;;;;6.03;2.90;;;;;;;;;;4985356;28;20033;-65
2023/05/03 14:15:09;;;;;;;5.47;2.60;;;;;;;;;;4985273;28;20186;-64
2023/05/03 14:17:35;;;;;;;6.18;3.10;;;;;;;;;;4985951;28;20117;-66
2023/05/03 14:20:00;;;;;;;4.47;2.85;;;;;;;;;;4984652;28;20037;-70
2023/05/03 14:22:28;;;;;;;6.78;2.78;;;;;;;;;;4988501;28;20065;-63
2023/05/03 14:24:53;;;;;;;5.57;2.90;;;;;;;;;;5019252;28;20451;-65
2023/05/03 14:27:20;;;;;;;5.50;2.92;;;;;;;;;;4986698;28;20491;-63
2023/05/03 14:29:52;;;;;;;6.65;2.58;;;;;;;;;;4985868;28;21622;-64
2023/05/03 14:32:19;;;;;;;5.40;2.50;;;;;;;;;;4984151;28;20672;-64
2023/05/03 14:34:44;;;;;;;4.90;3.03;;;;;;;;;;4986249;28;20052;-64
2023/05/03 14:37:09;;;;;;;5.28;2.80;;;;;;;;;;4984518;28;20045;-63
2023/05/03 14:39:35;;;;;;;6.97;2.88;;;;;;;;;;4985989;28;20512;-63
2023/05/03 14:42:02;;;;;;;7.18;2.85;;;;;;;;;;4985297;28;20037;-64
2023/05/03 14:44:27;;;;;;;7.80;3.00;;;;;;;;;;4986370;28;20185;-65
2023/05/03 14:46:52;;;;;;;6.20;2.95;;;;;;;;;;4986971;28;20041;-64